createdAt,value
2018-01-25T00:00:05.383Z,8.80
2018-01-25T00:01:05.839Z,8.80
2018-01-25T00:02:05.467Z,8.80
2018-01-25T00:03:05.382Z,8.80
2018-01-25T00:04:05.298Z,8.80
2018-01-25T00:05:04.965Z,8.80
2018-01-25T00:06:05.649Z,8.80
2018-01-25T00:07:05.635Z,8.80
2018-01-25T00:08:05.053Z,8.80
2018-01-25T00:09:05.705Z,8.70
2018-01-25T00:10:05.395Z,8.70
2018-01-25T00:11:05.314Z,8.70
2018-01-25T00:12:05.737Z,8.70
2018-01-25T00:13:05.392Z,8.70
2018-01-25T00:14:05.051Z,8.70
2018-01-25T00:15:05.423Z,8.70
2018-01-25T00:16:05.699Z,8.70
2018-01-25T00:17:06.026Z,8.70
2018-01-25T00:18:05.050Z,8.60
2018-01-25T00:19:05.699Z,8.60
2018-01-25T00:20:05.806Z,8.60
2018-01-25T00:21:04.944Z,8.60
2018-01-25T00:22:05.075Z,8.60
2018-01-25T00:23:05.420Z,8.60
2018-01-25T00:24:05.809Z,8.60
2018-01-25T00:25:05.799Z,8.60
2018-01-25T00:26:05.335Z,8.60
2018-01-25T00:27:05.055Z,8.60
2018-01-25T00:28:05.805Z,8.60
2018-01-25T00:29:05.376Z,8.60
2018-01-25T00:30:05.721Z,8.60
2018-01-25T00:31:05.714Z,8.60
2018-01-25T00:32:05.105Z,8.60
2018-01-25T00:33:05.779Z,8.60
2018-01-25T00:34:05.099Z,8.60
2018-01-25T00:35:06.067Z,8.60
2018-01-25T00:36:05.032Z,8.60
2018-01-25T00:37:05.725Z,8.60
2018-01-25T00:38:05.337Z,8.60
2018-01-25T00:39:04.971Z,8.60
2018-01-25T00:40:05.091Z,8.50
2018-01-25T00:41:05.428Z,8.50
2018-01-25T00:42:05.040Z,8.50
2018-01-25T00:43:05.399Z,8.50
2018-01-25T00:44:05.764Z,8.50
2018-01-25T00:45:06.071Z,8.50
2018-01-25T00:46:05.779Z,8.50
2018-01-25T00:47:05.371Z,8.50
2018-01-25T00:48:05.525Z,8.50
2018-01-25T00:49:05.354Z,8.50
2018-01-25T00:50:05.313Z,8.50
2018-01-25T00:51:05.344Z,8.50
2018-01-25T00:52:04.944Z,8.50
2018-01-25T00:53:05.365Z,8.50
2018-01-25T00:54:05.782Z,8.50
2018-01-25T00:55:04.975Z,8.50
2018-01-25T00:56:05.329Z,8.50
2018-01-25T00:57:05.421Z,8.50
2018-01-25T00:58:05.435Z,8.50
2018-01-25T00:59:05.294Z,8.50
2018-01-25T01:00:05.096Z,8.50
2018-01-25T01:01:04.994Z,8.40
2018-01-25T01:02:05.411Z,8.40
2018-01-25T01:03:05.733Z,8.40
2018-01-25T01:04:04.945Z,8.40
2018-01-25T01:05:05.324Z,8.40
2018-01-25T01:06:05.048Z,8.40
2018-01-25T01:07:05.411Z,8.40
2018-01-25T01:08:05.840Z,8.40
2018-01-25T01:09:05.002Z,8.40
2018-01-25T01:10:05.356Z,8.40
2018-01-25T01:11:05.389Z,8.40
2018-01-25T01:12:05.747Z,8.40
2018-01-25T01:13:05.366Z,8.40
2018-01-25T01:14:05.009Z,8.40
2018-01-25T01:15:05.364Z,8.40
2018-01-25T01:16:05.067Z,8.40
2018-01-25T01:17:05.758Z,8.40
2018-01-25T01:18:05.764Z,8.40
2018-01-25T01:19:04.974Z,8.40
2018-01-25T01:20:05.756Z,8.40
2018-01-25T01:21:05.823Z,8.40
2018-01-25T01:22:05.725Z,8.40
2018-01-25T01:23:05.348Z,8.40
2018-01-25T01:24:05.774Z,8.40
2018-01-25T01:25:05.151Z,8.40
2018-01-25T01:26:05.791Z,8.40
2018-01-25T01:27:05.398Z,8.40
2018-01-25T01:28:04.974Z,8.40
2018-01-25T01:29:05.412Z,8.40
2018-01-25T01:30:05.828Z,8.40
2018-01-25T01:31:05.418Z,8.40
2018-01-25T01:32:04.954Z,8.40
2018-01-25T01:33:05.453Z,8.40
2018-01-25T01:34:05.860Z,8.40
2018-01-25T01:35:05.385Z,8.40
2018-01-25T01:36:05.789Z,8.40
2018-01-25T01:37:04.995Z,8.40
2018-01-25T01:38:05.557Z,8.40
2018-01-25T01:39:05.926Z,8.40
2018-01-25T01:40:05.003Z,8.40
2018-01-25T01:41:05.050Z,8.40
2018-01-25T01:42:05.766Z,8.40
2018-01-25T01:43:05.396Z,8.40
2018-01-25T01:44:05.482Z,8.40
2018-01-25T01:45:05.775Z,8.40
2018-01-25T01:46:05.354Z,8.40
2018-01-25T01:47:05.754Z,8.40
2018-01-25T01:48:05.050Z,8.40
2018-01-25T01:49:05.788Z,8.40
2018-01-25T01:50:05.134Z,8.40
2018-01-25T01:51:05.568Z,8.40
2018-01-25T01:52:05.396Z,8.40
2018-01-25T01:53:05.925Z,8.40
2018-01-25T01:54:05.505Z,8.40
2018-01-25T01:55:05.755Z,8.40
2018-01-25T01:56:05.031Z,8.40
2018-01-25T01:57:05.804Z,8.40
2018-01-25T01:58:05.193Z,8.40
2018-01-25T01:59:05.826Z,8.40
2018-01-25T02:00:05.396Z,8.40
2018-01-25T02:01:05.375Z,8.40
2018-01-25T02:02:05.817Z,8.40
2018-01-25T02:03:05.463Z,8.40
2018-01-25T02:04:05.005Z,8.40
2018-01-25T02:05:05.495Z,8.40
2018-01-25T02:06:05.013Z,8.40
2018-01-25T02:07:05.845Z,8.40
2018-01-25T02:08:05.056Z,8.40
2018-01-25T02:09:05.394Z,8.40
2018-01-25T02:10:05.868Z,8.40
2018-01-25T02:11:05.175Z,8.40
2018-01-25T02:12:05.377Z,8.30
2018-01-25T02:13:05.482Z,8.30
2018-01-25T02:14:05.043Z,8.30
2018-01-25T02:15:05.088Z,8.30
2018-01-25T02:16:05.158Z,8.30
2018-01-25T02:17:05.496Z,8.30
2018-01-25T02:18:05.441Z,8.30
2018-01-25T02:19:05.085Z,8.30
2018-01-25T02:20:05.185Z,8.30
2018-01-25T02:21:05.806Z,8.30
2018-01-25T02:22:05.186Z,8.30
2018-01-25T02:23:05.090Z,8.30
2018-01-25T02:24:05.839Z,8.30
2018-01-25T02:25:05.505Z,8.30
2018-01-25T02:26:05.159Z,8.30
2018-01-25T02:27:05.814Z,8.20
2018-01-25T02:28:05.406Z,8.20
2018-01-25T02:29:05.851Z,8.30
2018-01-25T02:30:05.044Z,8.30
2018-01-25T02:31:05.023Z,8.20
2018-01-25T02:32:05.424Z,8.30
2018-01-25T02:33:05.655Z,8.20
2018-01-25T02:34:05.912Z,8.20
2018-01-25T02:35:05.199Z,8.20
2018-01-25T02:36:05.512Z,8.20
2018-01-25T02:37:05.035Z,8.20
2018-01-25T02:38:05.186Z,8.20
2018-01-25T02:39:05.486Z,8.20
2018-01-25T02:40:05.065Z,8.20
2018-01-25T02:41:05.173Z,8.20
2018-01-25T02:42:05.263Z,8.20
2018-01-25T02:43:05.054Z,8.10
2018-01-25T02:44:05.678Z,8.10
2018-01-25T02:45:05.246Z,8.10
2018-01-25T02:46:04.788Z,8.10
2018-01-25T02:47:05.174Z,8.10
2018-01-25T02:48:05.532Z,8.10
2018-01-25T02:49:05.102Z,8.10
2018-01-25T02:50:05.825Z,8.10
2018-01-25T02:51:05.074Z,8.10
2018-01-25T02:52:05.846Z,8.10
2018-01-25T02:53:05.147Z,8.10
2018-01-25T02:54:05.087Z,8.10
2018-01-25T02:55:05.494Z,8.10
2018-01-25T02:56:05.103Z,8.10
2018-01-25T02:57:05.877Z,8.10
2018-01-25T02:58:06.014Z,8.10
2018-01-25T02:59:05.484Z,8.10
2018-01-25T03:00:05.099Z,8.10
2018-01-25T03:01:05.155Z,8.00
2018-01-25T03:02:05.159Z,8.00
2018-01-25T03:03:05.483Z,8.00
2018-01-25T03:04:05.215Z,8.00
2018-01-25T03:05:04.892Z,8.00
2018-01-25T03:06:05.906Z,8.00
2018-01-25T03:07:05.526Z,8.00
2018-01-25T03:08:05.511Z,8.00
2018-01-25T03:09:05.945Z,8.00
2018-01-25T03:10:05.589Z,8.00
2018-01-25T03:11:05.949Z,8.00
2018-01-25T03:12:05.884Z,8.00
2018-01-25T03:13:05.211Z,8.00
2018-01-25T03:14:05.874Z,8.00
2018-01-25T03:15:05.898Z,8.00
2018-01-25T03:16:05.138Z,8.00
2018-01-25T03:17:05.512Z,8.00
2018-01-25T03:18:05.914Z,8.00
2018-01-25T03:19:05.623Z,8.00
2018-01-25T03:20:05.118Z,8.00
2018-01-25T03:21:05.233Z,8.00
2018-01-25T03:22:05.856Z,8.00
2018-01-25T03:23:05.538Z,8.00
2018-01-25T03:24:05.142Z,8.00
2018-01-25T03:25:05.878Z,8.00
2018-01-25T03:26:05.495Z,8.00
2018-01-25T03:27:05.606Z,8.00
2018-01-25T03:28:05.874Z,8.00
2018-01-25T03:29:05.173Z,8.00
2018-01-25T03:30:05.500Z,7.90
2018-01-25T03:31:04.790Z,7.90
2018-01-25T03:32:05.114Z,8.00
2018-01-25T03:33:05.885Z,7.90
2018-01-25T03:34:05.224Z,7.90
2018-01-25T03:35:05.876Z,8.00
2018-01-25T03:36:05.558Z,8.00
2018-01-25T03:37:04.869Z,7.90
2018-01-25T03:38:05.592Z,7.90
2018-01-25T03:39:05.182Z,7.90
2018-01-25T03:40:05.493Z,7.90
2018-01-25T03:41:05.177Z,7.90
2018-01-25T03:42:05.605Z,7.90
2018-01-25T03:43:05.533Z,7.90
2018-01-25T03:44:05.226Z,7.90
2018-01-25T03:45:05.716Z,7.90
2018-01-25T03:46:05.909Z,7.90
2018-01-25T03:47:05.575Z,7.90
2018-01-25T03:48:05.229Z,7.90
2018-01-25T03:49:04.853Z,7.90
2018-01-25T03:50:05.484Z,7.90
2018-01-25T03:51:05.896Z,7.90
2018-01-25T03:52:05.132Z,7.90
2018-01-25T03:53:05.554Z,7.80
2018-01-25T03:54:05.630Z,7.80
2018-01-25T03:55:05.935Z,7.80
2018-01-25T03:56:05.303Z,7.90
2018-01-25T03:57:05.568Z,7.90
2018-01-25T03:58:05.883Z,7.90
2018-01-25T03:59:05.330Z,7.90
2018-01-25T04:00:05.180Z,7.90
2018-01-25T04:01:05.255Z,7.90
2018-01-25T04:02:05.235Z,7.90
2018-01-25T04:03:05.154Z,7.90
2018-01-25T04:04:05.514Z,8.00
2018-01-25T04:05:05.934Z,8.00
2018-01-25T04:06:05.163Z,8.00
2018-01-25T04:07:05.191Z,8.00
2018-01-25T04:08:05.578Z,8.00
2018-01-25T04:09:05.952Z,8.00
2018-01-25T04:10:05.254Z,8.00
2018-01-25T04:11:05.554Z,8.00
2018-01-25T04:12:05.169Z,8.00
2018-01-25T04:13:05.914Z,8.10
2018-01-25T04:14:05.632Z,8.10
2018-01-25T04:15:04.919Z,8.10
2018-01-25T04:16:05.684Z,8.10
2018-01-25T04:17:05.585Z,8.10
2018-01-25T04:18:05.194Z,8.10
2018-01-25T04:19:05.523Z,8.10
2018-01-25T04:20:05.357Z,8.10
2018-01-25T04:21:05.721Z,8.10
2018-01-25T04:22:05.964Z,8.10
2018-01-25T04:23:05.943Z,8.10
2018-01-25T04:24:05.958Z,8.10
2018-01-25T04:25:05.584Z,8.10
2018-01-25T04:26:05.785Z,8.10
2018-01-25T04:27:05.553Z,8.10
2018-01-25T04:28:05.246Z,8.10
2018-01-25T04:29:05.563Z,8.10
2018-01-25T04:30:05.268Z,8.10
2018-01-25T04:31:05.564Z,8.10
2018-01-25T04:32:05.716Z,8.10
2018-01-25T04:33:05.565Z,8.20
2018-01-25T04:34:04.824Z,8.20
2018-01-25T04:35:05.134Z,8.20
2018-01-25T04:36:05.584Z,8.20
2018-01-25T04:37:05.272Z,8.20
2018-01-25T04:38:05.572Z,8.20
2018-01-25T04:39:05.993Z,8.20
2018-01-25T04:40:05.628Z,8.20
2018-01-25T04:41:05.644Z,8.20
2018-01-25T04:42:05.951Z,8.20
2018-01-25T04:43:05.309Z,8.20
2018-01-25T04:44:05.225Z,8.20
2018-01-25T04:45:05.988Z,8.20
2018-01-25T04:46:05.291Z,8.20
2018-01-25T04:47:05.175Z,8.20
2018-01-25T04:48:05.268Z,8.30
2018-01-25T04:49:05.637Z,8.30
2018-01-25T04:50:05.158Z,8.30
2018-01-25T04:51:05.255Z,8.30
2018-01-25T04:52:05.207Z,8.30
2018-01-25T04:53:05.746Z,8.30
2018-01-25T04:54:05.574Z,8.30
2018-01-25T04:55:05.594Z,8.30
2018-01-25T04:56:05.410Z,8.30
2018-01-25T04:57:05.198Z,8.30
2018-01-25T04:58:05.459Z,8.30
2018-01-25T04:59:05.253Z,8.30
2018-01-25T05:00:05.295Z,8.30
2018-01-25T05:01:05.262Z,8.30
2018-01-25T05:02:05.174Z,8.30
2018-01-25T05:03:05.264Z,8.30
2018-01-25T05:04:05.609Z,8.30
2018-01-25T05:05:05.184Z,8.40
2018-01-25T05:06:05.606Z,8.40
2018-01-25T05:07:05.225Z,8.40
2018-01-25T05:08:04.966Z,8.40
2018-01-25T05:09:05.260Z,8.40
2018-01-25T05:10:05.214Z,8.40
2018-01-25T05:11:05.585Z,8.40
2018-01-25T05:12:06.024Z,8.50
2018-01-25T05:13:05.189Z,8.50
2018-01-25T05:14:05.626Z,8.50
2018-01-25T05:15:05.288Z,8.50
2018-01-25T05:16:05.407Z,8.50
2018-01-25T05:17:05.954Z,8.50
2018-01-25T05:18:05.673Z,8.50
2018-01-25T05:19:05.249Z,8.50
2018-01-25T05:20:06.016Z,8.50
2018-01-25T05:21:05.605Z,8.50
2018-01-25T05:22:04.851Z,8.60
2018-01-25T05:23:05.204Z,8.60
2018-01-25T05:24:05.648Z,8.60
2018-01-25T05:25:06.033Z,8.60
2018-01-25T05:26:05.642Z,8.60
2018-01-25T05:27:05.277Z,8.60
2018-01-25T05:28:05.605Z,8.60
2018-01-25T05:29:04.962Z,8.60
2018-01-25T05:30:05.246Z,8.60
2018-01-25T05:31:05.594Z,8.60
2018-01-25T05:32:05.224Z,8.60
2018-01-25T05:33:05.606Z,8.60
2018-01-25T05:34:05.655Z,8.60
2018-01-25T05:35:06.006Z,8.50
2018-01-25T05:36:05.235Z,8.50
2018-01-25T05:37:05.255Z,8.60
2018-01-25T05:38:05.645Z,8.50
2018-01-25T05:39:05.313Z,8.50
2018-01-25T05:40:05.673Z,8.50
2018-01-25T05:41:05.614Z,8.50
2018-01-25T05:42:05.623Z,8.50
2018-01-25T05:43:06.016Z,8.50
2018-01-25T05:44:05.350Z,8.50
2018-01-25T05:45:05.653Z,8.50
2018-01-25T05:46:05.441Z,8.50
2018-01-25T05:47:05.061Z,8.50
2018-01-25T05:48:05.254Z,8.50
2018-01-25T05:49:04.950Z,8.50
2018-01-25T05:50:05.728Z,8.50
2018-01-25T05:51:05.332Z,8.50
2018-01-25T05:52:05.327Z,8.50
2018-01-25T05:53:05.717Z,8.50
2018-01-25T05:54:05.628Z,8.50
2018-01-25T05:55:04.912Z,8.50
2018-01-25T05:56:04.856Z,8.50
2018-01-25T05:57:04.949Z,8.50
2018-01-25T05:58:05.038Z,8.50
2018-01-25T05:59:05.667Z,8.50
2018-01-25T06:00:05.279Z,8.50
2018-01-25T06:01:05.305Z,8.50
2018-01-25T06:02:05.439Z,8.50
2018-01-25T06:03:06.055Z,8.50
2018-01-25T06:04:05.437Z,8.50
2018-01-25T06:05:05.660Z,8.50
2018-01-25T06:06:05.276Z,8.50
2018-01-25T06:07:05.655Z,8.50
2018-01-25T06:08:05.255Z,8.50
2018-01-25T06:09:05.266Z,8.50
2018-01-25T06:10:05.373Z,8.50
2018-01-25T06:11:05.326Z,8.50
2018-01-25T06:12:05.654Z,8.50
2018-01-25T06:13:05.716Z,8.50
2018-01-25T06:14:05.275Z,8.50
2018-01-25T06:15:04.921Z,8.50
2018-01-25T06:16:04.985Z,8.50
2018-01-25T06:17:04.952Z,8.50
2018-01-25T06:18:05.263Z,8.50
2018-01-25T06:19:05.726Z,8.50
2018-01-25T06:20:05.695Z,8.50
2018-01-25T06:21:05.730Z,8.50
2018-01-25T06:22:05.434Z,8.50
2018-01-25T06:23:06.069Z,8.50
2018-01-25T06:24:05.715Z,8.50
2018-01-25T06:25:05.348Z,8.50
2018-01-25T06:26:05.462Z,8.40
2018-01-25T06:27:05.285Z,8.40
2018-01-25T06:28:06.076Z,8.40
2018-01-25T06:29:05.766Z,8.40
2018-01-25T06:30:05.685Z,8.40
2018-01-25T06:31:05.522Z,8.40
2018-01-25T06:32:05.289Z,8.40
2018-01-25T06:33:05.764Z,8.40
2018-01-25T06:34:05.274Z,8.40
2018-01-25T06:35:05.726Z,8.40
2018-01-25T06:36:05.254Z,8.40
2018-01-25T06:37:05.761Z,8.40
2018-01-25T06:38:05.704Z,8.40
2018-01-25T06:39:05.390Z,8.40
2018-01-25T06:40:05.127Z,8.40
2018-01-25T06:41:05.711Z,8.40
2018-01-25T06:42:04.972Z,8.40
2018-01-25T06:43:05.764Z,8.40
2018-01-25T06:44:04.924Z,8.40
2018-01-25T06:45:05.704Z,8.40
2018-01-25T06:46:05.399Z,8.40
2018-01-25T06:47:04.978Z,8.40
2018-01-25T06:48:05.347Z,8.40
2018-01-25T06:49:05.510Z,8.40
2018-01-25T06:50:05.327Z,8.40
2018-01-25T06:51:05.329Z,8.40
2018-01-25T06:52:05.016Z,8.40
2018-01-25T06:53:05.319Z,8.40
2018-01-25T06:54:04.987Z,8.40
2018-01-25T06:55:05.714Z,8.40
2018-01-25T06:56:04.914Z,8.30
2018-01-25T06:57:05.789Z,8.30
2018-01-25T06:58:05.030Z,8.30
2018-01-25T06:59:05.688Z,8.30
2018-01-25T07:00:04.978Z,8.40
2018-01-25T07:01:05.467Z,8.30
2018-01-25T07:02:05.406Z,8.30
2018-01-25T07:03:05.290Z,8.30
2018-01-25T07:04:04.965Z,8.30
2018-01-25T07:05:05.724Z,8.30
2018-01-25T07:06:05.370Z,8.40
2018-01-25T07:07:05.794Z,8.40
2018-01-25T07:08:05.304Z,8.40
2018-01-25T07:09:05.721Z,8.30
2018-01-25T07:10:05.033Z,8.30
2018-01-25T07:11:05.785Z,8.40
2018-01-25T07:12:05.466Z,8.40
2018-01-25T07:13:05.364Z,8.30
2018-01-25T07:14:05.704Z,8.30
2018-01-25T07:15:05.033Z,8.40
2018-01-25T07:16:05.678Z,8.40
2018-01-25T07:17:04.926Z,8.40
2018-01-25T07:18:05.314Z,8.40
2018-01-25T07:19:05.715Z,8.40
2018-01-25T07:20:05.047Z,8.40
2018-01-25T07:21:05.527Z,8.40
2018-01-25T07:22:05.698Z,8.40
2018-01-25T07:23:05.396Z,8.40
2018-01-25T07:24:05.726Z,8.40
2018-01-25T07:25:05.415Z,8.40
2018-01-25T07:26:05.725Z,8.40
2018-01-25T07:27:05.157Z,8.40
2018-01-25T07:28:05.012Z,8.40
2018-01-25T07:29:05.365Z,8.40
2018-01-25T07:30:05.306Z,8.40
2018-01-25T07:31:05.719Z,8.40
2018-01-25T07:32:05.754Z,8.40
2018-01-25T07:33:05.783Z,8.40
2018-01-25T07:34:05.483Z,8.40
2018-01-25T07:35:05.100Z,8.40
2018-01-25T07:36:05.745Z,8.40
2018-01-25T07:37:05.456Z,8.40
2018-01-25T07:38:04.998Z,8.40
2018-01-25T07:39:04.987Z,8.40
2018-01-25T07:40:05.354Z,8.40
2018-01-25T07:41:05.052Z,8.40
2018-01-25T07:42:05.803Z,8.40
2018-01-25T07:43:05.356Z,8.50
2018-01-25T07:44:05.829Z,8.40
2018-01-25T07:45:05.151Z,8.50
2018-01-25T07:46:05.453Z,8.50
2018-01-25T07:47:05.758Z,8.50
2018-01-25T07:48:05.470Z,8.50
2018-01-25T07:49:05.828Z,8.50
2018-01-25T07:50:05.366Z,8.50
2018-01-25T07:51:05.738Z,8.50
2018-01-25T07:52:05.345Z,8.60
2018-01-25T07:53:05.759Z,8.60
2018-01-25T07:54:05.071Z,8.60
2018-01-25T07:55:05.787Z,8.60
2018-01-25T07:56:04.996Z,8.60
2018-01-25T07:57:05.147Z,8.60
2018-01-25T07:58:04.985Z,8.60
2018-01-25T07:59:05.497Z,8.60
2018-01-25T08:00:05.754Z,8.60
2018-01-25T08:01:05.902Z,8.60
2018-01-25T08:02:05.799Z,8.70
2018-01-25T08:03:05.438Z,8.70
2018-01-25T08:04:05.422Z,8.70
2018-01-25T08:05:05.566Z,8.70
2018-01-25T08:06:05.820Z,8.70
2018-01-25T08:07:05.117Z,8.70
2018-01-25T08:08:05.346Z,8.70
2018-01-25T08:09:05.808Z,8.70
2018-01-25T08:10:04.997Z,8.70
2018-01-25T08:11:05.060Z,8.70
2018-01-25T08:12:05.761Z,8.70
2018-01-25T08:13:05.416Z,8.70
2018-01-25T08:14:05.030Z,8.70
2018-01-25T08:15:05.582Z,8.70
2018-01-25T08:16:05.164Z,8.80
2018-01-25T08:17:05.570Z,8.80
2018-01-25T08:18:05.389Z,8.80
2018-01-25T08:19:05.829Z,8.80
2018-01-25T08:20:05.764Z,8.80
2018-01-25T08:21:05.453Z,8.80
2018-01-25T08:22:05.500Z,8.80
2018-01-25T08:23:04.806Z,8.80
2018-01-25T08:24:05.833Z,8.80
2018-01-25T08:25:05.831Z,8.80
2018-01-25T08:26:05.394Z,8.80
2018-01-25T08:27:05.542Z,8.90
2018-01-25T08:28:04.769Z,8.80
2018-01-25T08:29:05.385Z,8.90
2018-01-25T08:30:05.057Z,8.90
2018-01-25T08:31:05.406Z,8.90
2018-01-25T08:32:05.082Z,8.90
2018-01-25T08:33:05.057Z,8.90
2018-01-25T08:34:05.839Z,8.90
2018-01-25T08:35:05.104Z,8.90
2018-01-25T08:36:05.786Z,9.00
2018-01-25T08:37:05.028Z,9.00
2018-01-25T08:38:05.568Z,9.00
2018-01-25T08:39:05.458Z,9.00
2018-01-25T08:40:05.080Z,9.00
2018-01-25T08:41:05.021Z,9.00
2018-01-25T08:42:05.440Z,9.00
2018-01-25T08:43:05.078Z,9.00
2018-01-25T08:44:05.405Z,9.00
2018-01-25T08:45:05.836Z,9.00
2018-01-25T08:46:05.475Z,9.10
2018-01-25T08:47:05.055Z,9.00
2018-01-25T08:48:05.435Z,9.10
2018-01-25T08:49:05.822Z,9.10
2018-01-25T08:50:05.435Z,9.10
2018-01-25T08:51:05.513Z,9.10
2018-01-25T08:52:05.507Z,9.10
2018-01-25T08:53:05.579Z,9.10
2018-01-25T08:54:05.038Z,9.10
2018-01-25T08:55:05.486Z,9.10
2018-01-25T08:56:05.858Z,9.10
2018-01-25T08:57:05.122Z,9.10
2018-01-25T08:58:05.014Z,9.10
2018-01-25T08:59:05.157Z,9.10
2018-01-25T09:00:05.059Z,9.10
2018-01-25T09:01:05.081Z,9.10
2018-01-25T09:02:05.521Z,9.10
2018-01-25T09:03:05.934Z,9.10
2018-01-25T09:04:05.484Z,9.10
2018-01-25T09:05:05.806Z,9.10
2018-01-25T09:06:05.146Z,9.20
2018-01-25T09:07:05.836Z,9.20
2018-01-25T09:08:05.589Z,9.20
2018-01-25T09:09:05.095Z,9.20
2018-01-25T09:10:05.433Z,9.20
2018-01-25T09:11:05.845Z,9.20
2018-01-25T09:12:04.809Z,9.20
2018-01-25T09:13:05.435Z,9.30
2018-01-25T09:14:05.874Z,9.30
2018-01-25T09:15:05.506Z,9.30
2018-01-25T09:16:05.897Z,9.30
2018-01-25T09:17:05.484Z,9.30
2018-01-25T09:18:05.068Z,9.30
2018-01-25T09:19:05.445Z,9.30
2018-01-25T09:20:05.641Z,9.30
2018-01-25T09:21:05.673Z,9.40
2018-01-25T09:22:05.476Z,9.40
2018-01-25T09:23:05.556Z,9.40
2018-01-25T09:24:05.156Z,9.40
2018-01-25T09:25:05.490Z,9.40
2018-01-25T09:26:05.845Z,9.40
2018-01-25T09:27:05.231Z,9.40
2018-01-25T09:28:05.563Z,9.40
2018-01-25T09:29:05.941Z,9.40
2018-01-25T09:30:05.534Z,9.40
2018-01-25T09:31:05.181Z,9.40
2018-01-25T09:32:05.513Z,9.40
2018-01-25T09:33:05.085Z,9.40
2018-01-25T09:34:05.529Z,9.40
2018-01-25T09:35:05.910Z,9.40
2018-01-25T09:36:05.121Z,9.40
2018-01-25T09:37:05.528Z,9.40
2018-01-25T09:38:05.907Z,9.50
2018-01-25T09:39:05.223Z,9.50
2018-01-25T09:40:05.125Z,9.50
2018-01-25T09:41:05.110Z,9.50
2018-01-25T09:42:05.510Z,9.50
2018-01-25T09:43:05.876Z,9.50
2018-01-25T09:44:05.561Z,9.50
2018-01-25T09:45:05.202Z,9.50
2018-01-25T09:46:05.583Z,9.50
2018-01-25T09:47:05.099Z,9.50
2018-01-25T09:48:05.943Z,9.60
2018-01-25T09:49:05.177Z,9.60
2018-01-25T09:50:05.635Z,9.60
2018-01-25T09:51:05.854Z,9.60
2018-01-25T09:52:05.474Z,9.60
2018-01-25T09:53:05.118Z,9.60
2018-01-25T09:54:05.507Z,9.60
2018-01-25T09:55:05.118Z,9.60
2018-01-25T09:56:05.169Z,9.60
2018-01-25T09:57:05.897Z,9.70
2018-01-25T09:58:05.509Z,9.70
2018-01-25T09:59:05.610Z,9.70
2018-01-25T10:00:05.117Z,9.70
2018-01-25T10:01:04.845Z,9.70
2018-01-25T10:02:05.192Z,9.70
2018-01-25T10:03:05.885Z,9.70
2018-01-25T10:04:05.125Z,9.70
2018-01-25T10:05:05.636Z,9.70
2018-01-25T10:06:05.875Z,9.80
2018-01-25T10:07:05.214Z,9.80
2018-01-25T10:08:05.914Z,9.80
2018-01-25T10:09:05.554Z,9.80
2018-01-25T10:10:05.894Z,9.80
2018-01-25T10:11:04.808Z,9.80
2018-01-25T10:12:05.140Z,9.80
2018-01-25T10:13:05.565Z,9.80
2018-01-25T10:14:05.183Z,9.80
2018-01-25T10:15:05.895Z,9.80
2018-01-25T10:16:05.205Z,9.90
2018-01-25T10:17:05.124Z,9.90
2018-01-25T10:18:05.697Z,9.90
2018-01-25T10:19:05.240Z,9.90
2018-01-25T10:20:05.917Z,9.90
2018-01-25T10:21:05.714Z,9.90
2018-01-25T10:22:05.167Z,9.90
2018-01-25T10:23:05.514Z,10.00
2018-01-25T10:24:05.936Z,10.00
2018-01-25T10:25:05.288Z,10.00
2018-01-25T10:26:05.604Z,10.00
2018-01-25T10:27:05.226Z,10.00
2018-01-25T10:28:05.639Z,10.10
2018-01-25T10:29:05.907Z,10.10
2018-01-25T10:30:05.221Z,10.10
2018-01-25T10:31:05.181Z,10.10
2018-01-25T10:32:05.525Z,10.20
2018-01-25T10:33:05.989Z,10.20
2018-01-25T10:34:05.249Z,10.20
2018-01-25T10:35:05.780Z,10.30
2018-01-25T10:36:05.673Z,10.30
2018-01-25T10:37:05.168Z,10.30
2018-01-25T10:38:05.695Z,10.40
2018-01-25T10:39:04.819Z,10.40
2018-01-25T10:40:05.226Z,10.40
2018-01-25T10:41:05.517Z,10.50
2018-01-25T10:42:05.146Z,10.50
2018-01-25T10:43:05.272Z,10.50
2018-01-25T10:44:06.010Z,10.50
2018-01-25T10:45:05.326Z,10.60
2018-01-25T10:46:05.091Z,10.60
2018-01-25T10:47:05.641Z,10.60
2018-01-25T10:48:05.270Z,10.60
2018-01-25T10:49:05.710Z,10.60
2018-01-25T10:50:05.592Z,10.70
2018-01-25T10:51:05.587Z,10.70
2018-01-25T10:52:05.036Z,10.70
2018-01-25T10:53:05.268Z,10.70
2018-01-25T10:54:05.697Z,10.70
2018-01-25T10:55:05.333Z,10.80
2018-01-25T10:56:05.644Z,10.80
2018-01-25T10:57:05.198Z,10.80
2018-01-25T10:58:05.603Z,10.80
2018-01-25T10:59:05.957Z,10.80
2018-01-25T11:00:05.240Z,10.80
2018-01-25T11:01:04.900Z,10.90
2018-01-25T11:02:05.544Z,10.90
2018-01-25T11:03:05.692Z,10.90
2018-01-25T11:04:05.767Z,10.90
2018-01-25T11:05:09.829Z,10.90
2018-01-25T11:06:05.189Z,10.90
2018-01-25T11:07:05.959Z,10.90
2018-01-25T11:08:05.260Z,10.90
2018-01-25T11:09:05.693Z,10.90
2018-01-25T11:10:05.209Z,11.00
2018-01-25T11:11:05.601Z,11.00
2018-01-25T11:12:05.666Z,11.00
2018-01-25T11:13:04.919Z,11.00
2018-01-25T11:14:05.275Z,11.00
2018-01-25T11:15:04.902Z,11.00
2018-01-25T11:16:05.664Z,11.00
2018-01-25T11:17:05.649Z,11.00
2018-01-25T11:18:05.566Z,11.00
2018-01-25T11:19:05.975Z,11.00
2018-01-25T11:20:05.977Z,11.00
2018-01-25T11:21:05.188Z,11.00
2018-01-25T11:22:05.749Z,11.00
2018-01-25T11:23:04.928Z,11.00
2018-01-25T11:24:05.627Z,11.00
2018-01-25T11:25:05.296Z,11.00
2018-01-25T11:26:04.920Z,11.00
2018-01-25T11:27:04.890Z,11.00
2018-01-25T11:28:05.350Z,11.00
2018-01-25T11:29:05.772Z,11.00
2018-01-25T11:30:05.677Z,11.00
2018-01-25T11:31:05.555Z,11.00
2018-01-25T11:32:05.610Z,11.00
2018-01-25T11:33:04.906Z,11.00
2018-01-25T11:34:05.267Z,11.00
2018-01-25T11:35:05.946Z,11.00
2018-01-25T11:36:05.595Z,11.10
2018-01-25T11:37:05.253Z,11.10
2018-01-25T11:38:05.232Z,11.10
2018-01-25T11:39:06.039Z,11.10
2018-01-25T11:40:05.285Z,11.10
2018-01-25T11:41:05.585Z,11.10
2018-01-25T11:42:05.657Z,11.10
2018-01-25T11:43:04.913Z,11.10
2018-01-25T11:44:06.024Z,11.10
2018-01-25T11:45:05.615Z,11.10
2018-01-25T11:46:05.237Z,11.10
2018-01-25T11:47:05.597Z,11.10
2018-01-25T11:48:05.278Z,11.10
2018-01-25T11:49:05.607Z,11.10
2018-01-25T11:50:05.698Z,11.10
2018-01-25T11:51:05.224Z,11.10
2018-01-25T11:52:05.575Z,11.10
2018-01-25T11:53:05.405Z,11.10
2018-01-25T11:54:05.764Z,11.10
2018-01-25T11:55:05.271Z,11.10
2018-01-25T11:56:05.625Z,11.10
2018-01-25T11:57:05.426Z,11.10
2018-01-25T11:58:05.603Z,11.10
2018-01-25T11:59:04.876Z,11.10
2018-01-25T12:00:05.597Z,11.00
2018-01-25T12:01:04.970Z,11.00
2018-01-25T12:02:05.266Z,11.00
2018-01-25T12:03:05.696Z,11.00
2018-01-25T12:04:05.205Z,11.00
2018-01-25T12:05:05.220Z,11.00
2018-01-25T12:06:05.047Z,11.00
2018-01-25T12:07:05.754Z,11.00
2018-01-25T12:08:05.667Z,11.00
2018-01-25T12:09:06.119Z,11.00
2018-01-25T12:10:05.640Z,11.00
2018-01-25T12:11:06.025Z,11.00
2018-01-25T12:12:05.290Z,11.00
2018-01-25T12:13:05.599Z,10.90
2018-01-25T12:14:06.006Z,10.90
2018-01-25T12:15:05.616Z,10.90
2018-01-25T12:16:05.706Z,10.90
2018-01-25T12:17:05.246Z,10.90
2018-01-25T12:18:05.799Z,10.90
2018-01-25T12:19:05.377Z,10.90
2018-01-25T12:20:04.857Z,10.90
2018-01-25T12:21:05.636Z,10.90
2018-01-25T12:22:05.366Z,10.90
2018-01-25T12:23:04.970Z,10.90
2018-01-25T12:24:06.165Z,10.80
2018-01-25T12:25:05.281Z,10.90
2018-01-25T12:26:06.040Z,10.80
2018-01-25T12:27:04.906Z,10.80
2018-01-25T12:28:05.312Z,10.80
2018-01-25T12:29:05.363Z,10.80
2018-01-25T12:30:05.765Z,10.80
2018-01-25T12:31:05.625Z,10.80
2018-01-25T12:32:04.929Z,10.80
2018-01-25T12:33:05.303Z,10.80
2018-01-25T12:34:05.695Z,10.80
2018-01-25T12:35:05.033Z,10.80
2018-01-25T12:36:05.759Z,10.80
2018-01-25T12:37:05.288Z,10.80
2018-01-25T12:38:05.245Z,10.80
2018-01-25T12:39:05.274Z,10.80
2018-01-25T12:40:05.376Z,10.80
2018-01-25T12:41:05.646Z,10.80
2018-01-25T12:42:04.876Z,10.80
2018-01-25T12:43:05.676Z,10.80
2018-01-25T12:44:05.267Z,10.80
2018-01-25T12:45:05.507Z,10.80
2018-01-25T12:46:05.335Z,10.80
2018-01-25T12:47:05.013Z,10.80
2018-01-25T12:48:05.344Z,10.80
2018-01-25T12:49:06.114Z,10.80
2018-01-25T12:50:04.990Z,10.80
2018-01-25T12:51:05.487Z,10.80
2018-01-25T12:52:04.926Z,10.70
2018-01-25T12:53:05.317Z,10.70
2018-01-25T12:54:05.687Z,10.70
2018-01-25T12:55:05.326Z,10.70
2018-01-25T12:56:05.685Z,10.70
2018-01-25T12:57:05.674Z,10.70
2018-01-25T12:58:05.275Z,10.70
2018-01-25T12:59:05.452Z,10.70
2018-01-25T13:00:04.975Z,10.70
2018-01-25T13:01:05.405Z,10.70
2018-01-25T13:02:05.343Z,10.70
2018-01-25T13:03:06.057Z,10.70
2018-01-25T13:04:05.745Z,10.70
2018-01-25T13:05:05.369Z,10.70
2018-01-25T13:06:05.758Z,10.70
2018-01-25T13:07:05.679Z,10.70
2018-01-25T13:08:05.367Z,10.70
2018-01-25T13:09:05.696Z,10.70
2018-01-25T13:10:05.333Z,10.70
2018-01-25T13:11:04.906Z,10.70
2018-01-25T13:12:05.374Z,10.70